sensor_id;sensor_type;location;lat;lon;timestamp;P1;durP1;ratioP1;P2;durP2;ratioP2
54247;SDS011;40161;39.768;2.722;2022-07-21T00:01:23;4.35;;;2.83;;
54247;SDS011;40161;39.768;2.722;2022-07-21T00:03:49;4.80;;;3.17;;
54247;SDS011;40161;39.768;2.722;2022-07-21T00:06:14;4.40;;;2.55;;
54247;SDS011;40161;39.768;2.722;2022-07-21T00:08:40;3.72;;;2.70;;
54247;SDS011;40161;39.768;2.722;2022-07-21T00:11:05;4.32;;;2.95;;
54247;SDS011;40161;39.768;2.722;2022-07-21T00:13:31;4.10;;;2.95;;
54247;SDS011;40161;39.768;2.722;2022-07-21T00:15:57;5.47;;;3.00;;
54247;SDS011;40161;39.768;2.722;2022-07-21T00:18:23;4.25;;;2.85;;
54247;SDS011;40161;39.768;2.722;2022-07-21T00:20:49;5.53;;;2.83;;
54247;SDS011;40161;39.768;2.722;2022-07-21T00:23:14;4.60;;;2.97;;
54247;SDS011;40161;39.768;2.722;2022-07-21T00:25:40;4.32;;;2.70;;
54247;SDS011;40161;39.768;2.722;2022-07-21T00:28:06;4.85;;;3.03;;
54247;SDS011;40161;39.768;2.722;2022-07-21T00:30:32;4.65;;;2.80;;
54247;SDS011;40161;39.768;2.722;2022-07-21T00:32:57;5.18;;;3.20;;
54247;SDS011;40161;39.768;2.722;2022-07-21T00:35:24;4.10;;;2.90;;
54247;SDS011;40161;39.768;2.722;2022-07-21T00:37:49;5.20;;;3.20;;
54247;SDS011;40161;39.768;2.722;2022-07-21T00:40:15;4.20;;;3.00;;
54247;SDS011;40161;39.768;2.722;2022-07-21T00:42:41;4.80;;;2.88;;
54247;SDS011;40161;39.768;2.722;2022-07-21T00:45:07;5.05;;;2.85;;
54247;SDS011;40161;39.768;2.722;2022-07-21T00:47:34;4.70;;;2.90;;
54247;SDS011;40161;39.768;2.722;2022-07-21T00:50:01;5.20;;;2.90;;
54247;SDS011;40161;39.768;2.722;2022-07-21T00:52:29;4.60;;;2.83;;
54247;SDS011;40161;39.768;2.722;2022-07-21T00:54:54;3.78;;;2.80;;
54247;SDS011;40161;39.768;2.722;2022-07-21T00:57:20;4.03;;;2.75;;
54247;SDS011;40161;39.768;2.722;2022-07-21T00:59:46;4.72;;;3.15;;
54247;SDS011;40161;39.768;2.722;2022-07-21T01:02:11;4.00;;;2.88;;
54247;SDS011;40161;39.768;2.722;2022-07-21T01:04:37;4.18;;;2.70;;
54247;SDS011;40161;39.768;2.722;2022-07-21T01:07:04;5.30;;;3.30;;
54247;SDS011;40161;39.768;2.722;2022-07-21T01:09:30;3.97;;;2.92;;
54247;SDS011;40161;39.768;2.722;2022-07-21T01:11:57;6.50;;;3.17;;
54247;SDS011;40161;39.768;2.722;2022-07-21T01:14:23;4.20;;;3.00;;
54247;SDS011;40161;39.768;2.722;2022-07-21T01:16:50;4.03;;;2.80;;
54247;SDS011;40161;39.768;2.722;2022-07-21T01:19:15;3.88;;;2.95;;
54247;SDS011;40161;39.768;2.722;2022-07-21T01:21:42;5.32;;;3.20;;
54247;SDS011;40161;39.768;2.722;2022-07-21T01:24:09;4.82;;;3.28;;
54247;SDS011;40161;39.768;2.722;2022-07-21T01:26:45;4.88;;;2.90;;
54247;SDS011;40161;39.768;2.722;2022-07-21T01:29:14;5.20;;;3.03;;
54247;SDS011;40161;39.768;2.722;2022-07-21T01:31:41;4.80;;;3.20;;
54247;SDS011;40161;39.768;2.722;2022-07-21T01:34:08;4.20;;;3.15;;
54247;SDS011;40161;39.768;2.722;2022-07-21T01:36:34;4.85;;;3.30;;
54247;SDS011;40161;39.768;2.722;2022-07-21T01:38:59;4.40;;;3.20;;
54247;SDS011;40161;39.768;2.722;2022-07-21T01:41:43;4.35;;;3.20;;
54247;SDS011;40161;39.768;2.722;2022-07-21T01:44:10;4.20;;;3.13;;
54247;SDS011;40161;39.768;2.722;2022-07-21T01:46:38;4.38;;;3.30;;
54247;SDS011;40161;39.768;2.722;2022-07-21T01:49:06;4.30;;;3.30;;
54247;SDS011;40161;39.768;2.722;2022-07-21T01:51:32;5.90;;;3.92;;
54247;SDS011;40161;39.768;2.722;2022-07-21T01:53:58;4.57;;;3.75;;
54247;SDS011;40161;39.768;2.722;2022-07-21T01:56:24;4.45;;;3.42;;
54247;SDS011;40161;39.768;2.722;2022-07-21T01:58:53;5.75;;;3.50;;
54247;SDS011;40161;39.768;2.722;2022-07-21T02:01:21;4.82;;;3.40;;
54247;SDS011;40161;39.768;2.722;2022-07-21T02:03:48;4.22;;;3.42;;
54247;SDS011;40161;39.768;2.722;2022-07-21T02:06:14;4.28;;;3.20;;
54247;SDS011;40161;39.768;2.722;2022-07-21T02:08:40;4.60;;;3.35;;
54247;SDS011;40161;39.768;2.722;2022-07-21T02:11:09;5.15;;;3.50;;
54247;SDS011;40161;39.768;2.722;2022-07-21T02:13:36;4.35;;;3.45;;
54247;SDS011;40161;39.768;2.722;2022-07-21T02:16:02;5.10;;;3.60;;
54247;SDS011;40161;39.768;2.722;2022-07-21T02:18:28;4.95;;;3.28;;
54247;SDS011;40161;39.768;2.722;2022-07-21T02:20:54;5.82;;;3.45;;
54247;SDS011;40161;39.768;2.722;2022-07-21T02:23:21;4.80;;;3.17;;
54247;SDS011;40161;39.768;2.722;2022-07-21T02:25:47;4.20;;;3.10;;
54247;SDS011;40161;39.768;2.722;2022-07-21T02:28:13;4.35;;;3.28;;
54247;SDS011;40161;39.768;2.722;2022-07-21T02:30:38;5.22;;;2.97;;
54247;SDS011;40161;39.768;2.722;2022-07-21T02:33:04;4.38;;;3.38;;
54247;SDS011;40161;39.768;2.722;2022-07-21T02:35:31;3.83;;;2.88;;
54247;SDS011;40161;39.768;2.722;2022-07-21T02:37:57;4.55;;;3.15;;
54247;SDS011;40161;39.768;2.722;2022-07-21T02:40:23;4.13;;;2.95;;
54247;SDS011;40161;39.768;2.722;2022-07-21T02:42:49;5.00;;;3.40;;
54247;SDS011;40161;39.768;2.722;2022-07-21T02:45:14;4.50;;;3.17;;
54247;SDS011;40161;39.768;2.722;2022-07-21T02:50:26;4.80;;;3.00;;
54247;SDS011;40161;39.768;2.722;2022-07-21T02:52:56;6.53;;;3.40;;
54247;SDS011;40161;39.768;2.722;2022-07-21T02:55:24;4.85;;;3.00;;
54247;SDS011;40161;39.768;2.722;2022-07-21T02:58:02;4.47;;;3.22;;
54247;SDS011;40161;39.768;2.722;2022-07-21T03:00:40;5.43;;;3.35;;
54247;SDS011;40161;39.768;2.722;2022-07-21T03:03:09;4.85;;;3.40;;
54247;SDS011;40161;39.768;2.722;2022-07-21T03:05:36;5.47;;;3.22;;
54247;SDS011;40161;39.768;2.722;2022-07-21T03:08:02;5.25;;;3.60;;
54247;SDS011;40161;39.768;2.722;2022-07-21T03:10:28;6.28;;;3.80;;
54247;SDS011;40161;39.768;2.722;2022-07-21T03:12:54;5.07;;;3.95;;
54247;SDS011;40161;39.768;2.722;2022-07-21T03:15:19;5.70;;;3.60;;
54247;SDS011;40161;39.768;2.722;2022-07-21T03:17:45;5.38;;;3.67;;
54247;SDS011;40161;39.768;2.722;2022-07-21T03:20:11;5.28;;;3.60;;
54247;SDS011;40161;39.768;2.722;2022-07-21T03:22:37;6.82;;;4.10;;
54247;SDS011;40161;39.768;2.722;2022-07-21T03:25:03;4.55;;;3.40;;
54247;SDS011;40161;39.768;2.722;2022-07-21T03:27:30;5.63;;;3.72;;
54247;SDS011;40161;39.768;2.722;2022-07-21T03:29:55;5.13;;;3.38;;
54247;SDS011;40161;39.768;2.722;2022-07-21T03:32:21;5.97;;;4.13;;
54247;SDS011;40161;39.768;2.722;2022-07-21T03:34:46;5.05;;;3.97;;
54247;SDS011;40161;39.768;2.722;2022-07-21T03:37:12;5.15;;;3.65;;
54247;SDS011;40161;39.768;2.722;2022-07-21T03:39:37;6.25;;;3.92;;
54247;SDS011;40161;39.768;2.722;2022-07-21T03:42:04;5.05;;;3.47;;
54247;SDS011;40161;39.768;2.722;2022-07-21T03:44:29;5.47;;;3.80;;
54247;SDS011;40161;39.768;2.722;2022-07-21T03:46:55;6.10;;;3.97;;
54247;SDS011;40161;39.768;2.722;2022-07-21T03:49:23;4.75;;;3.60;;
54247;SDS011;40161;39.768;2.722;2022-07-21T03:51:49;5.50;;;3.88;;
54247;SDS011;40161;39.768;2.722;2022-07-21T03:54:15;5.72;;;3.85;;
54247;SDS011;40161;39.768;2.722;2022-07-21T03:56:40;5.30;;;3.83;;
54247;SDS011;40161;39.768;2.722;2022-07-21T03:59:06;4.72;;;3.90;;
54247;SDS011;40161;39.768;2.722;2022-07-21T04:01:31;4.78;;;3.40;;
54247;SDS011;40161;39.768;2.722;2022-07-21T04:03:57;4.97;;;3.65;;
54247;SDS011;40161;39.768;2.722;2022-07-21T04:06:22;4.65;;;3.30;;
54247;SDS011;40161;39.768;2.722;2022-07-21T04:08:48;4.90;;;3.83;;
54247;SDS011;40161;39.768;2.722;2022-07-21T04:11:13;4.68;;;3.90;;
54247;SDS011;40161;39.768;2.722;2022-07-21T04:13:39;5.25;;;3.75;;
54247;SDS011;40161;39.768;2.722;2022-07-21T04:16:04;5.28;;;3.78;;
54247;SDS011;40161;39.768;2.722;2022-07-21T04:18:30;5.32;;;3.53;;
54247;SDS011;40161;39.768;2.722;2022-07-21T04:20:56;4.90;;;3.30;;
54247;SDS011;40161;39.768;2.722;2022-07-21T04:23:21;5.30;;;3.83;;
54247;SDS011;40161;39.768;2.722;2022-07-21T04:25:47;5.07;;;3.53;;
54247;SDS011;40161;39.768;2.722;2022-07-21T04:28:12;5.53;;;3.70;;
54247;SDS011;40161;39.768;2.722;2022-07-21T04:30:38;5.43;;;3.65;;
54247;SDS011;40161;39.768;2.722;2022-07-21T04:33:03;6.07;;;3.88;;
54247;SDS011;40161;39.768;2.722;2022-07-21T04:35:29;5.00;;;3.88;;
54247;SDS011;40161;39.768;2.722;2022-07-21T04:37:54;6.70;;;3.80;;
54247;SDS011;40161;39.768;2.722;2022-07-21T04:40:20;4.75;;;3.85;;
54247;SDS011;40161;39.768;2.722;2022-07-21T04:42:45;9.13;;;4.00;;
54247;SDS011;40161;39.768;2.722;2022-07-21T04:45:12;5.32;;;3.35;;
54247;SDS011;40161;39.768;2.722;2022-07-21T04:52:37;5.82;;;3.55;;
54247;SDS011;40161;39.768;2.722;2022-07-21T04:55:03;6.30;;;3.75;;
54247;SDS011;40161;39.768;2.722;2022-07-21T04:57:29;7.63;;;3.53;;
54247;SDS011;40161;39.768;2.722;2022-07-21T04:59:54;7.13;;;3.50;;
54247;SDS011;40161;39.768;2.722;2022-07-21T05:02:19;4.88;;;3.33;;
54247;SDS011;40161;39.768;2.722;2022-07-21T05:04:45;4.25;;;3.40;;
54247;SDS011;40161;39.768;2.722;2022-07-21T05:07:11;5.22;;;3.60;;
54247;SDS011;40161;39.768;2.722;2022-07-21T05:09:36;5.63;;;3.45;;
54247;SDS011;40161;39.768;2.722;2022-07-21T05:12:02;6.20;;;3.85;;
54247;SDS011;40161;39.768;2.722;2022-07-21T05:14:28;7.03;;;3.47;;
54247;SDS011;40161;39.768;2.722;2022-07-21T05:16:53;4.70;;;3.13;;
54247;SDS011;40161;39.768;2.722;2022-07-21T05:19:19;5.60;;;3.38;;
54247;SDS011;40161;39.768;2.722;2022-07-21T05:21:44;4.43;;;3.70;;
54247;SDS011;40161;39.768;2.722;2022-07-21T05:24:11;4.65;;;3.55;;
54247;SDS011;40161;39.768;2.722;2022-07-21T05:26:36;6.00;;;3.90;;
54247;SDS011;40161;39.768;2.722;2022-07-21T05:29:02;5.25;;;3.72;;
54247;SDS011;40161;39.768;2.722;2022-07-21T05:31:28;5.28;;;3.38;;
54247;SDS011;40161;39.768;2.722;2022-07-21T05:33:53;5.28;;;3.72;;
54247;SDS011;40161;39.768;2.722;2022-07-21T05:36:19;5.25;;;3.65;;
54247;SDS011;40161;39.768;2.722;2022-07-21T05:38:44;5.28;;;3.90;;
54247;SDS011;40161;39.768;2.722;2022-07-21T05:41:10;6.47;;;4.22;;
54247;SDS011;40161;39.768;2.722;2022-07-21T05:43:36;4.60;;;3.40;;
54247;SDS011;40161;39.768;2.722;2022-07-21T05:46:01;4.70;;;3.80;;
54247;SDS011;40161;39.768;2.722;2022-07-21T05:48:27;5.60;;;3.75;;
54247;SDS011;40161;39.768;2.722;2022-07-21T05:50:52;5.57;;;3.65;;
54247;SDS011;40161;39.768;2.722;2022-07-21T05:53:18;5.45;;;4.03;;
54247;SDS011;40161;39.768;2.722;2022-07-21T05:55:44;7.13;;;3.70;;
54247;SDS011;40161;39.768;2.722;2022-07-21T05:58:09;5.05;;;3.92;;
54247;SDS011;40161;39.768;2.722;2022-07-21T06:00:35;7.43;;;4.30;;
54247;SDS011;40161;39.768;2.722;2022-07-21T06:03:01;7.82;;;4.13;;
54247;SDS011;40161;39.768;2.722;2022-07-21T06:05:26;5.30;;;3.85;;
54247;SDS011;40161;39.768;2.722;2022-07-21T06:07:52;6.15;;;3.60;;
54247;SDS011;40161;39.768;2.722;2022-07-21T06:10:18;5.15;;;3.85;;
54247;SDS011;40161;39.768;2.722;2022-07-21T06:12:44;5.47;;;3.90;;
54247;SDS011;40161;39.768;2.722;2022-07-21T06:15:09;7.43;;;4.25;;
54247;SDS011;40161;39.768;2.722;2022-07-21T06:17:42;5.43;;;3.85;;
54247;SDS011;40161;39.768;2.722;2022-07-21T06:20:11;8.48;;;4.50;;
54247;SDS011;40161;39.768;2.722;2022-07-21T06:22:38;6.65;;;4.20;;
54247;SDS011;40161;39.768;2.722;2022-07-21T06:25:04;5.25;;;3.90;;
54247;SDS011;40161;39.768;2.722;2022-07-21T06:27:30;5.20;;;3.85;;
54247;SDS011;40161;39.768;2.722;2022-07-21T06:29:57;6.43;;;4.65;;
54247;SDS011;40161;39.768;2.722;2022-07-21T06:32:24;5.18;;;4.22;;
54247;SDS011;40161;39.768;2.722;2022-07-21T06:34:50;6.95;;;4.18;;
54247;SDS011;40161;39.768;2.722;2022-07-21T06:37:15;6.90;;;4.68;;
54247;SDS011;40161;39.768;2.722;2022-07-21T06:39:41;8.07;;;4.35;;
54247;SDS011;40161;39.768;2.722;2022-07-21T06:42:07;6.82;;;4.30;;
54247;SDS011;40161;39.768;2.722;2022-07-21T06:44:33;5.28;;;3.80;;
54247;SDS011;40161;39.768;2.722;2022-07-21T06:46:58;10.18;;;4.30;;
54247;SDS011;40161;39.768;2.722;2022-07-21T06:49:29;5.25;;;4.20;;
54247;SDS011;40161;39.768;2.722;2022-07-21T06:51:56;6.28;;;4.00;;
54247;SDS011;40161;39.768;2.722;2022-07-21T06:54:21;6.30;;;3.90;;
54247;SDS011;40161;39.768;2.722;2022-07-21T06:56:47;9.57;;;3.92;;
54247;SDS011;40161;39.768;2.722;2022-07-21T06:59:13;6.18;;;3.80;;
54247;SDS011;40161;39.768;2.722;2022-07-21T07:01:38;5.43;;;3.38;;
54247;SDS011;40161;39.768;2.722;2022-07-21T07:04:04;6.60;;;3.50;;
54247;SDS011;40161;39.768;2.722;2022-07-21T07:06:30;5.45;;;3.28;;
54247;SDS011;40161;39.768;2.722;2022-07-21T07:08:55;5.30;;;3.72;;
54247;SDS011;40161;39.768;2.722;2022-07-21T07:11:21;4.97;;;3.28;;
54247;SDS011;40161;39.768;2.722;2022-07-21T07:13:46;5.50;;;3.38;;
54247;SDS011;40161;39.768;2.722;2022-07-21T07:16:12;5.03;;;3.30;;
54247;SDS011;40161;39.768;2.722;2022-07-21T07:18:38;4.55;;;3.00;;
54247;SDS011;40161;39.768;2.722;2022-07-21T07:21:04;8.57;;;3.63;;
54247;SDS011;40161;39.768;2.722;2022-07-21T07:23:30;6.38;;;3.08;;
54247;SDS011;40161;39.768;2.722;2022-07-21T07:25:56;5.22;;;3.22;;
54247;SDS011;40161;39.768;2.722;2022-07-21T07:28:21;5.90;;;3.10;;
54247;SDS011;40161;39.768;2.722;2022-07-21T07:30:47;4.38;;;2.95;;
54247;SDS011;40161;39.768;2.722;2022-07-21T07:33:13;6.30;;;4.00;;
54247;SDS011;40161;39.768;2.722;2022-07-21T07:35:39;5.35;;;3.35;;
54247;SDS011;40161;39.768;2.722;2022-07-21T07:38:04;4.55;;;3.33;;
54247;SDS011;40161;39.768;2.722;2022-07-21T07:40:30;5.63;;;3.20;;
54247;SDS011;40161;39.768;2.722;2022-07-21T07:42:56;5.05;;;3.65;;
54247;SDS011;40161;39.768;2.722;2022-07-21T07:45:22;4.05;;;2.97;;
54247;SDS011;40161;39.768;2.722;2022-07-21T07:47:47;4.82;;;2.85;;
54247;SDS011;40161;39.768;2.722;2022-07-21T07:50:13;5.65;;;3.47;;
54247;SDS011;40161;39.768;2.722;2022-07-21T07:52:39;5.43;;;3.72;;
54247;SDS011;40161;39.768;2.722;2022-07-21T07:55:06;6.32;;;3.58;;
54247;SDS011;40161;39.768;2.722;2022-07-21T07:57:35;6.93;;;3.70;;
54247;SDS011;40161;39.768;2.722;2022-07-21T08:00:06;4.57;;;2.97;;
54247;SDS011;40161;39.768;2.722;2022-07-21T08:02:35;6.32;;;3.30;;
54247;SDS011;40161;39.768;2.722;2022-07-21T08:05:00;6.38;;;3.90;;
54247;SDS011;40161;39.768;2.722;2022-07-21T08:07:26;9.63;;;5.28;;
54247;SDS011;40161;39.768;2.722;2022-07-21T08:09:52;9.32;;;5.50;;
54247;SDS011;40161;39.768;2.722;2022-07-21T08:12:18;8.65;;;5.78;;
54247;SDS011;40161;39.768;2.722;2022-07-21T08:14:43;9.70;;;6.55;;
54247;SDS011;40161;39.768;2.722;2022-07-21T08:17:09;7.00;;;4.60;;
54247;SDS011;40161;39.768;2.722;2022-07-21T08:19:35;7.32;;;4.30;;
54247;SDS011;40161;39.768;2.722;2022-07-21T08:22:00;5.97;;;4.60;;
54247;SDS011;40161;39.768;2.722;2022-07-21T08:24:26;8.68;;;5.70;;
54247;SDS011;40161;39.768;2.722;2022-07-21T08:26:52;7.53;;;5.20;;
54247;SDS011;40161;39.768;2.722;2022-07-21T08:29:17;7.93;;;4.53;;
54247;SDS011;40161;39.768;2.722;2022-07-21T08:31:43;6.82;;;4.57;;
54247;SDS011;40161;39.768;2.722;2022-07-21T08:34:08;9.18;;;4.90;;
54247;SDS011;40161;39.768;2.722;2022-07-21T08:36:34;6.28;;;4.65;;
54247;SDS011;40161;39.768;2.722;2022-07-21T08:38:59;8.27;;;5.10;;
54247;SDS011;40161;39.768;2.722;2022-07-21T08:41:25;7.60;;;4.93;;
54247;SDS011;40161;39.768;2.722;2022-07-21T08:43:51;6.70;;;4.50;;
54247;SDS011;40161;39.768;2.722;2022-07-21T08:46:18;9.38;;;4.82;;
54247;SDS011;40161;39.768;2.722;2022-07-21T08:48:47;9.80;;;5.85;;
54247;SDS011;40161;39.768;2.722;2022-07-21T08:51:13;13.90;;;7.13;;
54247;SDS011;40161;39.768;2.722;2022-07-21T08:53:43;7.13;;;4.97;;
54247;SDS011;40161;39.768;2.722;2022-07-21T08:56:10;11.98;;;5.20;;
54247;SDS011;40161;39.768;2.722;2022-07-21T08:58:35;9.85;;;6.20;;
54247;SDS011;40161;39.768;2.722;2022-07-21T09:01:02;10.07;;;5.82;;
54247;SDS011;40161;39.768;2.722;2022-07-21T09:03:28;7.65;;;4.85;;
54247;SDS011;40161;39.768;2.722;2022-07-21T09:06:15;8.80;;;5.45;;
54247;SDS011;40161;39.768;2.722;2022-07-21T09:08:43;8.18;;;5.20;;
54247;SDS011;40161;39.768;2.722;2022-07-21T09:19:07;8.05;;;4.65;;
54247;SDS011;40161;39.768;2.722;2022-07-21T09:21:42;9.48;;;5.97;;
54247;SDS011;40161;39.768;2.722;2022-07-21T09:24:11;9.48;;;5.35;;
54247;SDS011;40161;39.768;2.722;2022-07-21T09:29:22;7.40;;;4.80;;
54247;SDS011;40161;39.768;2.722;2022-07-21T09:31:47;7.97;;;4.82;;
54247;SDS011;40161;39.768;2.722;2022-07-21T09:34:13;8.45;;;4.65;;
54247;SDS011;40161;39.768;2.722;2022-07-21T09:36:39;8.52;;;4.65;;
54247;SDS011;40161;39.768;2.722;2022-07-21T09:39:40;7.07;;;4.73;;
54247;SDS011;40161;39.768;2.722;2022-07-21T09:42:13;6.60;;;4.20;;
54247;SDS011;40161;39.768;2.722;2022-07-21T09:44:41;6.95;;;4.55;;
54247;SDS011;40161;39.768;2.722;2022-07-21T09:47:09;8.95;;;4.97;;
54247;SDS011;40161;39.768;2.722;2022-07-21T09:49:36;9.27;;;5.20;;
54247;SDS011;40161;39.768;2.722;2022-07-21T09:52:02;9.27;;;4.82;;
54247;SDS011;40161;39.768;2.722;2022-07-21T09:55:09;9.82;;;5.35;;
54247;SDS011;40161;39.768;2.722;2022-07-21T09:57:37;7.63;;;4.60;;
54247;SDS011;40161;39.768;2.722;2022-07-21T10:00:04;9.15;;;4.78;;
54247;SDS011;40161;39.768;2.722;2022-07-21T10:02:32;9.70;;;5.63;;
54247;SDS011;40161;39.768;2.722;2022-07-21T10:05:03;6.82;;;5.00;;
54247;SDS011;40161;39.768;2.722;2022-07-21T10:07:35;9.75;;;5.00;;
54247;SDS011;40161;39.768;2.722;2022-07-21T10:10:03;7.97;;;5.18;;
54247;SDS011;40161;39.768;2.722;2022-07-21T10:12:29;8.27;;;5.00;;
54247;SDS011;40161;39.768;2.722;2022-07-21T10:14:55;8.88;;;5.60;;
54247;SDS011;40161;39.768;2.722;2022-07-21T10:17:22;7.82;;;4.90;;
54247;SDS011;40161;39.768;2.722;2022-07-21T10:25:19;8.25;;;5.22;;
54247;SDS011;40161;39.768;2.722;2022-07-21T10:30:54;7.80;;;5.45;;
54247;SDS011;40161;39.768;2.722;2022-07-21T10:33:21;10.60;;;5.13;;
54247;SDS011;40161;39.768;2.722;2022-07-21T10:36:07;17.35;;;5.63;;
54247;SDS011;40161;39.768;2.722;2022-07-21T10:38:33;7.55;;;5.07;;
54247;SDS011;40161;39.768;2.722;2022-07-21T10:41:01;8.48;;;4.95;;
54247;SDS011;40161;39.768;2.722;2022-07-21T10:45:54;8.77;;;5.20;;
54247;SDS011;40161;39.768;2.722;2022-07-21T10:51:08;7.00;;;5.03;;
54247;SDS011;40161;39.768;2.722;2022-07-21T10:53:35;8.18;;;5.25;;
54247;SDS011;40161;39.768;2.722;2022-07-21T10:56:01;8.27;;;4.72;;
54247;SDS011;40161;39.768;2.722;2022-07-21T10:58:37;8.40;;;5.13;;
54247;SDS011;40161;39.768;2.722;2022-07-21T11:03:41;10.50;;;5.38;;
54247;SDS011;40161;39.768;2.722;2022-07-21T11:06:18;9.65;;;5.70;;
54247;SDS011;40161;39.768;2.722;2022-07-21T11:08:49;7.63;;;5.30;;
54247;SDS011;40161;39.768;2.722;2022-07-21T11:11:16;7.78;;;4.90;;
54247;SDS011;40161;39.768;2.722;2022-07-21T11:19:51;10.02;;;5.25;;
54247;SDS011;40161;39.768;2.722;2022-07-21T11:22:10;8.70;;;4.80;;
54247;SDS011;40161;39.768;2.722;2022-07-21T11:24:36;9.02;;;4.80;;
54247;SDS011;40161;39.768;2.722;2022-07-21T11:27:04;9.25;;;4.75;;
54247;SDS011;40161;39.768;2.722;2022-07-21T11:29:30;7.80;;;4.75;;
54247;SDS011;40161;39.768;2.722;2022-07-21T11:31:57;8.38;;;4.97;;
54247;SDS011;40161;39.768;2.722;2022-07-21T11:34:27;8.05;;;4.85;;
54247;SDS011;40161;39.768;2.722;2022-07-21T11:37:05;7.72;;;4.80;;
54247;SDS011;40161;39.768;2.722;2022-07-21T11:39:31;8.75;;;4.78;;
54247;SDS011;40161;39.768;2.722;2022-07-21T11:42:04;8.63;;;4.82;;
54247;SDS011;40161;39.768;2.722;2022-07-21T11:44:32;8.10;;;5.38;;
54247;SDS011;40161;39.768;2.722;2022-07-21T11:46:59;8.98;;;4.68;;
54247;SDS011;40161;39.768;2.722;2022-07-21T11:49:28;10.57;;;4.82;;
54247;SDS011;40161;39.768;2.722;2022-07-21T11:52:15;6.68;;;4.43;;
54247;SDS011;40161;39.768;2.722;2022-07-21T11:57:18;7.60;;;4.90;;
54247;SDS011;40161;39.768;2.722;2022-07-21T11:59:46;7.93;;;5.15;;
54247;SDS011;40161;39.768;2.722;2022-07-21T12:02:13;8.73;;;5.60;;
54247;SDS011;40161;39.768;2.722;2022-07-21T12:04:44;7.25;;;4.43;;
54247;SDS011;40161;39.768;2.722;2022-07-21T12:09:44;8.68;;;5.40;;
54247;SDS011;40161;39.768;2.722;2022-07-21T12:12:11;7.10;;;4.90;;
54247;SDS011;40161;39.768;2.722;2022-07-21T12:14:41;8.48;;;5.03;;
54247;SDS011;40161;39.768;2.722;2022-07-21T12:17:11;7.18;;;5.00;;
54247;SDS011;40161;39.768;2.722;2022-07-21T12:19:37;8.10;;;4.90;;
54247;SDS011;40161;39.768;2.722;2022-07-21T12:22:03;8.07;;;4.55;;
54247;SDS011;40161;39.768;2.722;2022-07-21T12:24:51;7.38;;;4.57;;
54247;SDS011;40161;39.768;2.722;2022-07-21T12:27:19;9.68;;;5.18;;
54247;SDS011;40161;39.768;2.722;2022-07-21T12:29:45;8.18;;;4.60;;
54247;SDS011;40161;39.768;2.722;2022-07-21T12:32:11;7.82;;;5.03;;
54247;SDS011;40161;39.768;2.722;2022-07-21T12:34:50;8.20;;;5.03;;
54247;SDS011;40161;39.768;2.722;2022-07-21T12:37:17;6.35;;;4.28;;
54247;SDS011;40161;39.768;2.722;2022-07-21T12:39:42;8.57;;;4.85;;
54247;SDS011;40161;39.768;2.722;2022-07-21T12:44:55;8.00;;;4.63;;
54247;SDS011;40161;39.768;2.722;2022-07-21T12:47:22;7.85;;;4.75;;
54247;SDS011;40161;39.768;2.722;2022-07-21T12:52:20;7.97;;;4.50;;
54247;SDS011;40161;39.768;2.722;2022-07-21T12:54:45;7.55;;;4.45;;
54247;SDS011;40161;39.768;2.722;2022-07-21T12:57:11;8.55;;;4.95;;
54247;SDS011;40161;39.768;2.722;2022-07-21T12:59:36;10.10;;;4.53;;
54247;SDS011;40161;39.768;2.722;2022-07-21T13:02:02;7.50;;;4.78;;
54247;SDS011;40161;39.768;2.722;2022-07-21T13:04:27;8.18;;;4.93;;
54247;SDS011;40161;39.768;2.722;2022-07-21T13:06:53;10.38;;;4.72;;
54247;SDS011;40161;39.768;2.722;2022-07-21T13:09:19;11.73;;;5.00;;
54247;SDS011;40161;39.768;2.722;2022-07-21T13:11:45;9.27;;;5.05;;
54247;SDS011;40161;39.768;2.722;2022-07-21T13:14:11;7.75;;;4.55;;
54247;SDS011;40161;39.768;2.722;2022-07-21T13:16:36;11.60;;;6.85;;
54247;SDS011;40161;39.768;2.722;2022-07-21T13:19:02;8.73;;;5.00;;
54247;SDS011;40161;39.768;2.722;2022-07-21T13:21:28;8.05;;;4.40;;
54247;SDS011;40161;39.768;2.722;2022-07-21T13:23:53;7.93;;;4.82;;
54247;SDS011;40161;39.768;2.722;2022-07-21T13:26:19;7.78;;;4.38;;
54247;SDS011;40161;39.768;2.722;2022-07-21T13:28:44;9.77;;;4.78;;
54247;SDS011;40161;39.768;2.722;2022-07-21T13:31:10;6.53;;;4.38;;
54247;SDS011;40161;39.768;2.722;2022-07-21T13:33:36;8.32;;;4.57;;
54247;SDS011;40161;39.768;2.722;2022-07-21T13:36:02;7.50;;;4.25;;
54247;SDS011;40161;39.768;2.722;2022-07-21T13:38:28;10.75;;;4.90;;
54247;SDS011;40161;39.768;2.722;2022-07-21T13:40:53;7.20;;;4.10;;
54247;SDS011;40161;39.768;2.722;2022-07-21T13:43:19;6.63;;;4.03;;
54247;SDS011;40161;39.768;2.722;2022-07-21T13:45:46;7.90;;;4.35;;
54247;SDS011;40161;39.768;2.722;2022-07-21T13:48:12;6.80;;;4.40;;
54247;SDS011;40161;39.768;2.722;2022-07-21T13:50:37;9.65;;;3.97;;
54247;SDS011;40161;39.768;2.722;2022-07-21T13:53:03;9.50;;;4.53;;
54247;SDS011;40161;39.768;2.722;2022-07-21T13:55:29;7.80;;;4.13;;
54247;SDS011;40161;39.768;2.722;2022-07-21T13:57:55;7.65;;;3.60;;
54247;SDS011;40161;39.768;2.722;2022-07-21T14:00:20;7.57;;;4.15;;
54247;SDS011;40161;39.768;2.722;2022-07-21T14:02:46;5.53;;;3.75;;
54247;SDS011;40161;39.768;2.722;2022-07-21T14:05:13;8.82;;;3.80;;
54247;SDS011;40161;39.768;2.722;2022-07-21T14:07:38;7.70;;;3.80;;
54247;SDS011;40161;39.768;2.722;2022-07-21T14:10:05;7.22;;;3.72;;
54247;SDS011;40161;39.768;2.722;2022-07-21T14:12:31;8.65;;;4.60;;
54247;SDS011;40161;39.768;2.722;2022-07-21T14:14:57;6.47;;;3.72;;
54247;SDS011;40161;39.768;2.722;2022-07-21T14:17:22;7.72;;;4.03;;
54247;SDS011;40161;39.768;2.722;2022-07-21T14:19:48;6.50;;;3.50;;
54247;SDS011;40161;39.768;2.722;2022-07-21T14:22:14;9.25;;;4.20;;
54247;SDS011;40161;39.768;2.722;2022-07-21T14:24:42;6.57;;;4.05;;
54247;SDS011;40161;39.768;2.722;2022-07-21T14:27:26;6.88;;;4.20;;
54247;SDS011;40161;39.768;2.722;2022-07-21T14:29:52;7.15;;;3.47;;
54247;SDS011;40161;39.768;2.722;2022-07-21T14:32:18;6.30;;;4.07;;
54247;SDS011;40161;39.768;2.722;2022-07-21T14:34:48;7.63;;;4.30;;
54247;SDS011;40161;39.768;2.722;2022-07-21T14:37:14;8.60;;;4.63;;
54247;SDS011;40161;39.768;2.722;2022-07-21T14:39:39;6.88;;;4.57;;
54247;SDS011;40161;39.768;2.722;2022-07-21T14:42:05;9.02;;;4.10;;
54247;SDS011;40161;39.768;2.722;2022-07-21T14:44:31;7.22;;;4.32;;
54247;SDS011;40161;39.768;2.722;2022-07-21T14:46:56;8.65;;;4.35;;
54247;SDS011;40161;39.768;2.722;2022-07-21T14:49:22;5.75;;;3.80;;
54247;SDS011;40161;39.768;2.722;2022-07-21T14:51:47;7.72;;;4.15;;
54247;SDS011;40161;39.768;2.722;2022-07-21T14:54:13;7.30;;;4.47;;
54247;SDS011;40161;39.768;2.722;2022-07-21T14:56:38;8.73;;;4.20;;
54247;SDS011;40161;39.768;2.722;2022-07-21T14:59:04;8.10;;;4.05;;
54247;SDS011;40161;39.768;2.722;2022-07-21T15:01:30;7.35;;;3.97;;
54247;SDS011;40161;39.768;2.722;2022-07-21T15:03:55;9.25;;;4.20;;
54247;SDS011;40161;39.768;2.722;2022-07-21T15:06:21;6.80;;;4.35;;
54247;SDS011;40161;39.768;2.722;2022-07-21T15:08:46;7.63;;;3.85;;
54247;SDS011;40161;39.768;2.722;2022-07-21T15:11:12;6.82;;;4.00;;
54247;SDS011;40161;39.768;2.722;2022-07-21T15:13:37;5.88;;;3.72;;
54247;SDS011;40161;39.768;2.722;2022-07-21T15:16:03;5.55;;;3.72;;
54247;SDS011;40161;39.768;2.722;2022-07-21T15:18:29;7.03;;;3.90;;
54247;SDS011;40161;39.768;2.722;2022-07-21T15:20:55;5.57;;;3.72;;
54247;SDS011;40161;39.768;2.722;2022-07-21T15:23:20;7.75;;;4.20;;
54247;SDS011;40161;39.768;2.722;2022-07-21T15:25:46;6.35;;;3.75;;
54247;SDS011;40161;39.768;2.722;2022-07-21T15:28:11;7.50;;;4.00;;
54247;SDS011;40161;39.768;2.722;2022-07-21T15:30:37;6.22;;;4.03;;
54247;SDS011;40161;39.768;2.722;2022-07-21T15:33:04;7.40;;;3.80;;
54247;SDS011;40161;39.768;2.722;2022-07-21T15:35:33;6.20;;;3.80;;
54247;SDS011;40161;39.768;2.722;2022-07-21T15:38:02;7.53;;;3.65;;